sensor_id;sensor_type;location;lat;lon;timestamp;temperature;humidity
14798;DHT22;7490;63.708;20.368;2022-10-04T00:02:03;11.60;95.90
14798;DHT22;7490;63.708;20.368;2022-10-04T00:04:43;11.70;96.00
14798;DHT22;7490;63.708;20.368;2022-10-04T00:09:42;11.90;96.00
14798;DHT22;7490;63.708;20.368;2022-10-04T00:12:23;11.90;96.00
14798;DHT22;7490;63.708;20.368;2022-10-04T00:14:51;12.00;96.10
14798;DHT22;7490;63.708;20.368;2022-10-04T00:17:22;12.10;96.10
14798;DHT22;7490;63.708;20.368;2022-10-04T00:19:50;12.20;96.10
14798;DHT22;7490;63.708;20.368;2022-10-04T00:22:21;12.20;96.10
14798;DHT22;7490;63.708;20.368;2022-10-04T00:27:32;12.30;96.10
14798;DHT22;7490;63.708;20.368;2022-10-04T00:34:53;12.30;96.00
14798;DHT22;7490;63.708;20.368;2022-10-04T00:37:21;12.30;95.80
14798;DHT22;7490;63.708;20.368;2022-10-04T00:40:00;12.30;95.80
14798;DHT22;7490;63.708;20.368;2022-10-04T00:42:46;12.20;95.70
14798;DHT22;7490;63.708;20.368;2022-10-04T00:45:24;12.10;95.40
14798;DHT22;7490;63.708;20.368;2022-10-04T00:47:57;12.00;95.40
14798;DHT22;7490;63.708;20.368;2022-10-04T00:52:56;11.80;95.40
14798;DHT22;7490;63.708;20.368;2022-10-04T00:55:33;11.70;95.40
14798;DHT22;7490;63.708;20.368;2022-10-04T00:58:03;11.60;95.50
14798;DHT22;7490;63.708;20.368;2022-10-04T01:00:31;11.50;95.50
14798;DHT22;7490;63.708;20.368;2022-10-04T01:03:07;11.50;95.30
14798;DHT22;7490;63.708;20.368;2022-10-04T01:05:36;11.40;95.30
14798;DHT22;7490;63.708;20.368;2022-10-04T01:08:15;11.30;95.30
14798;DHT22;7490;63.708;20.368;2022-10-04T01:10:55;11.20;95.20
14798;DHT22;7490;63.708;20.368;2022-10-04T01:13:49;11.10;95.20
14798;DHT22;7490;63.708;20.368;2022-10-04T01:16:23;11.10;95.20
14798;DHT22;7490;63.708;20.368;2022-10-04T01:18:50;11.00;95.20
14798;DHT22;7490;63.708;20.368;2022-10-04T01:24:29;10.80;95.50
14798;DHT22;7490;63.708;20.368;2022-10-04T01:26:37;10.80;95.70
14798;DHT22;7490;63.708;20.368;2022-10-04T01:29:25;10.80;96.00
14798;DHT22;7490;63.708;20.368;2022-10-04T01:31:53;10.90;96.40
14798;DHT22;7490;63.708;20.368;2022-10-04T01:34:21;11.00;96.60
14798;DHT22;7490;63.708;20.368;2022-10-04T01:36:49;11.10;96.70
14798;DHT22;7490;63.708;20.368;2022-10-04T01:39:17;11.10;96.70
14798;DHT22;7490;63.708;20.368;2022-10-04T01:44:30;11.30;96.70
14798;DHT22;7490;63.708;20.368;2022-10-04T01:46:58;11.40;96.70
14798;DHT22;7490;63.708;20.368;2022-10-04T01:49:30;11.50;96.70
14798;DHT22;7490;63.708;20.368;2022-10-04T01:52:04;11.60;96.70
14798;DHT22;7490;63.708;20.368;2022-10-04T01:54:43;11.70;96.70
14798;DHT22;7490;63.708;20.368;2022-10-04T01:57:24;11.80;96.60
14798;DHT22;7490;63.708;20.368;2022-10-04T02:00:07;11.80;96.50
14798;DHT22;7490;63.708;20.368;2022-10-04T02:05:30;11.90;96.30
14798;DHT22;7490;63.708;20.368;2022-10-04T02:08:02;12.00;96.30
14798;DHT22;7490;63.708;20.368;2022-10-04T02:10:29;12.00;96.20
14798;DHT22;7490;63.708;20.368;2022-10-04T02:12:58;12.00;96.20
14798;DHT22;7490;63.708;20.368;2022-10-04T02:15:25;12.00;96.10
14798;DHT22;7490;63.708;20.368;2022-10-04T02:17:53;12.00;96.10
14798;DHT22;7490;63.708;20.368;2022-10-04T02:20:23;12.00;96.00
14798;DHT22;7490;63.708;20.368;2022-10-04T02:22:52;12.00;96.30
14798;DHT22;7490;63.708;20.368;2022-10-04T02:25:21;12.10;95.80
14798;DHT22;7490;63.708;20.368;2022-10-04T02:27:53;12.00;95.70
14798;DHT22;7490;63.708;20.368;2022-10-04T02:30:20;12.00;95.60
14798;DHT22;7490;63.708;20.368;2022-10-04T02:32:46;11.90;95.50
14798;DHT22;7490;63.708;20.368;2022-10-04T02:35:36;11.90;95.50
14798;DHT22;7490;63.708;20.368;2022-10-04T02:38:12;11.80;95.50
14798;DHT22;7490;63.708;20.368;2022-10-04T02:43:45;11.70;95.60
14798;DHT22;7490;63.708;20.368;2022-10-04T02:46:18;11.70;96.00
14798;DHT22;7490;63.708;20.368;2022-10-04T02:48:46;11.70;95.60
14798;DHT22;7490;63.708;20.368;2022-10-04T02:54:00;11.70;95.40
14798;DHT22;7490;63.708;20.368;2022-10-04T02:56:26;11.70;95.30
14798;DHT22;7490;63.708;20.368;2022-10-04T02:58:53;11.60;95.00
14798;DHT22;7490;63.708;20.368;2022-10-04T03:01:40;11.50;94.80
14798;DHT22;7490;63.708;20.368;2022-10-04T03:04:10;11.40;94.70
14798;DHT22;7490;63.708;20.368;2022-10-04T03:06:38;11.30;94.70
14798;DHT22;7490;63.708;20.368;2022-10-04T03:09:05;11.10;94.80
14798;DHT22;7490;63.708;20.368;2022-10-04T03:11:34;11.10;94.90
14798;DHT22;7490;63.708;20.368;2022-10-04T03:14:03;11.00;95.10
14798;DHT22;7490;63.708;20.368;2022-10-04T03:16:38;10.90;95.10
14798;DHT22;7490;63.708;20.368;2022-10-04T03:19:06;10.80;95.20
14798;DHT22;7490;63.708;20.368;2022-10-04T03:21:33;10.80;95.30
14798;DHT22;7490;63.708;20.368;2022-10-04T03:24:02;10.80;95.50
14798;DHT22;7490;63.708;20.368;2022-10-04T03:26:37;10.70;95.40
14798;DHT22;7490;63.708;20.368;2022-10-04T03:29:06;10.70;95.30
14798;DHT22;7490;63.708;20.368;2022-10-04T03:31:41;10.60;95.20
14798;DHT22;7490;63.708;20.368;2022-10-04T03:34:37;10.50;95.20
14798;DHT22;7490;63.708;20.368;2022-10-04T03:37:10;10.40;95.20
14798;DHT22;7490;63.708;20.368;2022-10-04T03:39:39;10.40;95.20
14798;DHT22;7490;63.708;20.368;2022-10-04T03:42:13;10.30;95.40
14798;DHT22;7490;63.708;20.368;2022-10-04T03:44:40;10.40;95.60
14798;DHT22;7490;63.708;20.368;2022-10-04T03:50:24;10.40;95.80
14798;DHT22;7490;63.708;20.368;2022-10-04T03:52:56;10.50;95.80
14798;DHT22;7490;63.708;20.368;2022-10-04T03:55:55;10.60;95.80
14798;DHT22;7490;63.708;20.368;2022-10-04T03:58:21;10.70;95.80
14798;DHT22;7490;63.708;20.368;2022-10-04T04:00:59;10.70;95.70
14798;DHT22;7490;63.708;20.368;2022-10-04T04:03:28;10.80;95.60
14798;DHT22;7490;63.708;20.368;2022-10-04T04:06:04;10.90;95.60
14798;DHT22;7490;63.708;20.368;2022-10-04T04:08:40;10.90;95.60
14798;DHT22;7490;63.708;20.368;2022-10-04T04:11:23;11.00;95.60
14798;DHT22;7490;63.708;20.368;2022-10-04T04:14:20;11.00;95.50
14798;DHT22;7490;63.708;20.368;2022-10-04T04:16:47;11.10;95.50
14798;DHT22;7490;63.708;20.368;2022-10-04T04:19:15;11.10;95.40
14798;DHT22;7490;63.708;20.368;2022-10-04T04:21:43;11.20;95.70
14798;DHT22;7490;63.708;20.368;2022-10-04T04:24:20;11.20;95.30
14798;DHT22;7490;63.708;20.368;2022-10-04T04:26:53;11.30;95.40
14798;DHT22;7490;63.708;20.368;2022-10-04T04:29:35;11.30;95.30
14798;DHT22;7490;63.708;20.368;2022-10-04T04:32:14;11.30;95.30
14798;DHT22;7490;63.708;20.368;2022-10-04T04:34:59;11.30;95.20
14798;DHT22;7490;63.708;20.368;2022-10-04T04:37:34;11.30;95.20
14798;DHT22;7490;63.708;20.368;2022-10-04T04:40:20;11.30;95.10
14798;DHT22;7490;63.708;20.368;2022-10-04T04:42:48;11.30;95.00
14798;DHT22;7490;63.708;20.368;2022-10-04T04:45:21;11.30;95.00
14798;DHT22;7490;63.708;20.368;2022-10-04T04:47:51;11.30;95.00
14798;DHT22;7490;63.708;20.368;2022-10-04T04:50:46;11.30;95.00
14798;DHT22;7490;63.708;20.368;2022-10-04T04:53:42;11.20;95.00
14798;DHT22;7490;63.708;20.368;2022-10-04T04:56:03;11.20;95.00
14798;DHT22;7490;63.708;20.368;2022-10-04T04:58:31;11.20;95.00
14798;DHT22;7490;63.708;20.368;2022-10-04T05:00:58;11.20;95.00
14798;DHT22;7490;63.708;20.368;2022-10-04T05:03:24;11.10;94.80
14798;DHT22;7490;63.708;20.368;2022-10-04T05:05:51;11.10;94.90
14798;DHT22;7490;63.708;20.368;2022-10-04T05:16:11;11.00;95.00
14798;DHT22;7490;63.708;20.368;2022-10-04T05:18:38;11.00;95.00
14798;DHT22;7490;63.708;20.368;2022-10-04T05:21:21;11.10;94.90
14798;DHT22;7490;63.708;20.368;2022-10-04T05:23:48;11.10;94.90
14798;DHT22;7490;63.708;20.368;2022-10-04T05:26:21;11.10;94.80
14798;DHT22;7490;63.708;20.368;2022-10-04T05:28:48;11.20;94.80
14798;DHT22;7490;63.708;20.368;2022-10-04T05:33:51;11.20;94.70
14798;DHT22;7490;63.708;20.368;2022-10-04T05:36:44;11.30;94.70
14798;DHT22;7490;63.708;20.368;2022-10-04T05:42:13;11.40;94.60
14798;DHT22;7490;63.708;20.368;2022-10-04T05:44:55;11.40;94.60
14798;DHT22;7490;63.708;20.368;2022-10-04T05:47:24;11.40;94.50
14798;DHT22;7490;63.708;20.368;2022-10-04T05:49:59;11.40;94.50
14798;DHT22;7490;63.708;20.368;2022-10-04T05:52:38;11.40;94.50
14798;DHT22;7490;63.708;20.368;2022-10-04T06:06:30;11.40;94.30
14798;DHT22;7490;63.708;20.368;2022-10-04T06:24:34;11.50;93.90
14798;DHT22;7490;63.708;20.368;2022-10-04T06:30:01;11.50;94.20
14798;DHT22;7490;63.708;20.368;2022-10-04T06:46:39;11.50;93.80
14798;DHT22;7490;63.708;20.368;2022-10-04T06:51:41;11.60;93.90
14798;DHT22;7490;63.708;20.368;2022-10-04T06:57:14;11.70;93.90
14798;DHT22;7490;63.708;20.368;2022-10-04T07:05:16;12.00;94.00
14798;DHT22;7490;63.708;20.368;2022-10-04T07:07:46;12.10;93.90
14798;DHT22;7490;63.708;20.368;2022-10-04T07:10:33;12.20;93.80
14798;DHT22;7490;63.708;20.368;2022-10-04T07:13:12;12.30;93.70
14798;DHT22;7490;63.708;20.368;2022-10-04T07:16:01;12.50;93.70
14798;DHT22;7490;63.708;20.368;2022-10-04T07:21:21;12.40;92.80
14798;DHT22;7490;63.708;20.368;2022-10-04T07:23:58;12.30;92.80
14798;DHT22;7490;63.708;20.368;2022-10-04T07:29:05;12.60;93.80
14798;DHT22;7490;63.708;20.368;2022-10-04T07:34:36;13.50;93.20
14798;DHT22;7490;63.708;20.368;2022-10-04T07:37:09;13.60;92.30
14798;DHT22;7490;63.708;20.368;2022-10-04T07:42:27;13.60;91.70
14798;DHT22;7490;63.708;20.368;2022-10-04T07:47:25;13.40;91.70
14798;DHT22;7490;63.708;20.368;2022-10-04T07:49:53;13.30;91.80
14798;DHT22;7490;63.708;20.368;2022-10-04T07:55:23;13.40;92.10
14798;DHT22;7490;63.708;20.368;2022-10-04T08:04:24;13.60;91.80
14798;DHT22;7490;63.708;20.368;2022-10-04T08:25:46;13.90;92.00
14798;DHT22;7490;63.708;20.368;2022-10-04T08:31:14;14.20;91.70
14798;DHT22;7490;63.708;20.368;2022-10-04T08:37:17;14.60;91.50
14798;DHT22;7490;63.708;20.368;2022-10-04T09:00:20;15.40;88.80
14798;DHT22;7490;63.708;20.368;2022-10-04T09:16:47;14.90;90.50
14798;DHT22;7490;63.708;20.368;2022-10-04T09:19:18;14.90;90.40
14798;DHT22;7490;63.708;20.368;2022-10-04T09:22:14;15.10;90.50
14798;DHT22;7490;63.708;20.368;2022-10-04T09:28:16;15.30;90.50
14798;DHT22;7490;63.708;20.368;2022-10-04T09:47:30;15.60;89.20
14798;DHT22;7490;63.708;20.368;2022-10-04T09:56:06;15.50;89.50
14798;DHT22;7490;63.708;20.368;2022-10-04T10:07:43;15.60;89.50
14798;DHT22;7490;63.708;20.368;2022-10-04T10:10:15;15.70;89.50
14798;DHT22;7490;63.708;20.368;2022-10-04T10:16:31;15.70;90.10
14798;DHT22;7490;63.708;20.368;2022-10-04T10:45:42;15.30;89.30
14798;DHT22;7490;63.708;20.368;2022-10-04T10:51:08;15.40;89.50
14798;DHT22;7490;63.708;20.368;2022-10-04T10:54:14;15.40;89.40
14798;DHT22;7490;63.708;20.368;2022-10-04T11:27:13;15.40;89.40
14798;DHT22;7490;63.708;20.368;2022-10-04T11:35:33;15.40;90.00
14798;DHT22;7490;63.708;20.368;2022-10-04T11:43:48;15.80;89.90
14798;DHT22;7490;63.708;20.368;2022-10-04T11:58:19;16.00;88.50
14798;DHT22;7490;63.708;20.368;2022-10-04T12:15:54;15.40;89.70
14798;DHT22;7490;63.708;20.368;2022-10-04T12:21:22;15.30;90.00
14798;DHT22;7490;63.708;20.368;2022-10-04T12:34:58;15.30;90.00
14798;DHT22;7490;63.708;20.368;2022-10-04T12:37:50;15.30;90.10
14798;DHT22;7490;63.708;20.368;2022-10-04T12:40:32;15.30;90.20
14798;DHT22;7490;63.708;20.368;2022-10-04T12:48:42;15.30;90.20
14798;DHT22;7490;63.708;20.368;2022-10-04T12:51:26;15.40;90.20
14798;DHT22;7490;63.708;20.368;2022-10-04T13:02:34;15.60;90.30
14798;DHT22;7490;63.708;20.368;2022-10-04T13:05:23;15.60;90.20
14798;DHT22;7490;63.708;20.368;2022-10-04T13:27:04;15.50;89.30
14798;DHT22;7490;63.708;20.368;2022-10-04T13:29:34;15.50;89.50
14798;DHT22;7490;63.708;20.368;2022-10-04T13:32:22;15.50;89.70
14798;DHT22;7490;63.708;20.368;2022-10-04T13:34:53;15.50;89.80
14798;DHT22;7490;63.708;20.368;2022-10-04T13:48:45;15.50;89.50
14798;DHT22;7490;63.708;20.368;2022-10-04T13:51:31;15.40;89.50
14798;DHT22;7490;63.708;20.368;2022-10-04T13:57:14;15.30;89.70
14798;DHT22;7490;63.708;20.368;2022-10-04T13:59:46;15.30;89.90
14798;DHT22;7490;63.708;20.368;2022-10-04T14:05:44;15.20;90.10
14798;DHT22;7490;63.708;20.368;2022-10-04T14:11:01;15.20;90.00
14798;DHT22;7490;63.708;20.368;2022-10-04T14:19:14;15.10;90.10
14798;DHT22;7490;63.708;20.368;2022-10-04T14:22:32;15.10;90.10
14798;DHT22;7490;63.708;20.368;2022-10-04T14:50:32;14.50;90.50
14798;DHT22;7490;63.708;20.368;2022-10-04T14:53:21;14.50;90.60
14798;DHT22;7490;63.708;20.368;2022-10-04T15:01:25;14.40;90.60
14798;DHT22;7490;63.708;20.368;2022-10-04T15:07:15;14.40;90.70
14798;DHT22;7490;63.708;20.368;2022-10-04T15:23:13;14.40;91.00
14798;DHT22;7490;63.708;20.368;2022-10-04T15:25:46;14.40;91.10
14798;DHT22;7490;63.708;20.368;2022-10-04T15:33:30;14.40;91.10
14798;DHT22;7490;63.708;20.368;2022-10-04T15:49:29;14.00;91.20
14798;DHT22;7490;63.708;20.368;2022-10-04T15:55:29;13.80;91.20
14798;DHT22;7490;63.708;20.368;2022-10-04T16:00:50;13.50;91.30
14798;DHT22;7490;63.708;20.368;2022-10-04T16:07:18;13.30;91.40
14798;DHT22;7490;63.708;20.368;2022-10-04T16:11:52;13.00;91.50
14798;DHT22;7490;63.708;20.368;2022-10-04T16:14:56;12.90;91.60
14798;DHT22;7490;63.708;20.368;2022-10-04T16:22:28;12.60;91.90
14798;DHT22;7490;63.708;20.368;2022-10-04T16:30:29;12.30;92.20
14798;DHT22;7490;63.708;20.368;2022-10-04T16:37:59;12.10;92.50
14798;DHT22;7490;63.708;20.368;2022-10-04T16:40:32;12.10;92.50
14798;DHT22;7490;63.708;20.368;2022-10-04T16:43:12;12.00;92.60
14798;DHT22;7490;63.708;20.368;2022-10-04T16:48:53;11.90;92.80
14798;DHT22;7490;63.708;20.368;2022-10-04T16:57:38;11.80;92.90
14798;DHT22;7490;63.708;20.368;2022-10-04T17:00:46;11.80;92.90
14798;DHT22;7490;63.708;20.368;2022-10-04T17:03:31;11.80;93.20
14798;DHT22;7490;63.708;20.368;2022-10-04T17:06:14;11.80;93.20
14798;DHT22;7490;63.708;20.368;2022-10-04T17:14:31;12.00;93.50
14798;DHT22;7490;63.708;20.368;2022-10-04T17:16:57;12.10;93.50
14798;DHT22;7490;63.708;20.368;2022-10-04T17:19:38;12.20;93.50
14798;DHT22;7490;63.708;20.368;2022-10-04T17:22:22;12.20;93.50
14798;DHT22;7490;63.708;20.368;2022-10-04T17:27:56;12.30;93.60
14798;DHT22;7490;63.708;20.368;2022-10-04T17:30:31;12.30;93.60
14798;DHT22;7490;63.708;20.368;2022-10-04T17:33:20;12.30;93.60
14798;DHT22;7490;63.708;20.368;2022-10-04T17:41:49;12.10;93.50
14798;DHT22;7490;63.708;20.368;2022-10-04T17:51:28;11.80;93.70
14798;DHT22;7490;63.708;20.368;2022-10-04T17:53:34;11.80;93.70
14798;DHT22;7490;63.708;20.368;2022-10-04T17:56:32;11.70;93.80
14798;DHT22;7490;63.708;20.368;2022-10-04T17:59:12;11.60;93.80
14798;DHT22;7490;63.708;20.368;2022-10-04T18:01:58;11.50;93.90
14798;DHT22;7490;63.708;20.368;2022-10-04T18:04:29;11.50;94.00
14798;DHT22;7490;63.708;20.368;2022-10-04T18:07:04;11.50;94.10
14798;DHT22;7490;63.708;20.368;2022-10-04T18:09:50;11.40;94.10
14798;DHT22;7490;63.708;20.368;2022-10-04T18:12:37;11.40;94.20
14798;DHT22;7490;63.708;20.368;2022-10-04T18:15:20;11.30;94.20
14798;DHT22;7490;63.708;20.368;2022-10-04T18:17:48;11.30;94.20
14798;DHT22;7490;63.708;20.368;2022-10-04T18:20:22;11.30;94.30
14798;DHT22;7490;63.708;20.368;2022-10-04T18:22:59;11.20;94.40
14798;DHT22;7490;63.708;20.368;2022-10-04T18:25:26;11.20;94.40
14798;DHT22;7490;63.708;20.368;2022-10-04T18:33:20;11.10;94.60
14798;DHT22;7490;63.708;20.368;2022-10-04T18:35:59;11.10;94.60
14798;DHT22;7490;63.708;20.368;2022-10-04T18:38:28;11.10;94.60
14798;DHT22;7490;63.708;20.368;2022-10-04T18:43:34;11.00;94.60
14798;DHT22;7490;63.708;20.368;2022-10-04T18:46:15;11.00;94.60
14798;DHT22;7490;63.708;20.368;2022-10-04T18:49:17;10.90;94.50
14798;DHT22;7490;63.708;20.368;2022-10-04T19:00:09;10.80;94.60
14798;DHT22;7490;63.708;20.368;2022-10-04T19:11:26;10.80;95.10
14798;DHT22;7490;63.708;20.368;2022-10-04T19:34:07;11.30;95.50
14798;DHT22;7490;63.708;20.368;2022-10-04T19:36:53;11.30;95.40
14798;DHT22;7490;63.708;20.368;2022-10-04T19:39:45;11.30;95.40
14798;DHT22;7490;63.708;20.368;2022-10-04T19:42:16;11.30;95.40
14798;DHT22;7490;63.708;20.368;2022-10-04T19:44:51;11.30;95.50
14798;DHT22;7490;63.708;20.368;2022-10-04T19:47:48;11.30;95.60
14798;DHT22;7490;63.708;20.368;2022-10-04T19:50:20;11.30;95.70
14798;DHT22;7490;63.708;20.368;2022-10-04T19:58:25;11.40;95.60
14798;DHT22;7490;63.708;20.368;2022-10-04T20:00:52;11.40;95.50
14798;DHT22;7490;63.708;20.368;2022-10-04T20:03:18;11.30;95.40
14798;DHT22;7490;63.708;20.368;2022-10-04T20:05:49;11.30;95.50
14798;DHT22;7490;63.708;20.368;2022-10-04T20:11:19;11.30;95.50
14798;DHT22;7490;63.708;20.368;2022-10-04T20:21:54;11.20;95.50
14798;DHT22;7490;63.708;20.368;2022-10-04T20:27:04;11.10;95.60
14798;DHT22;7490;63.708;20.368;2022-10-04T20:32:06;11.10;95.70
14798;DHT22;7490;63.708;20.368;2022-10-04T20:34:33;11.10;95.80
14798;DHT22;7490;63.708;20.368;2022-10-04T20:37:11;11.10;95.80
14798;DHT22;7490;63.708;20.368;2022-10-04T20:44:55;11.10;95.70
14798;DHT22;7490;63.708;20.368;2022-10-04T20:47:55;11.10;95.70
14798;DHT22;7490;63.708;20.368;2022-10-04T20:50:38;11.10;95.70
14798;DHT22;7490;63.708;20.368;2022-10-04T20:55:43;11.10;95.80
14798;DHT22;7490;63.708;20.368;2022-10-04T20:58:33;11.10;95.70
14798;DHT22;7490;63.708;20.368;2022-10-04T21:01:04;11.10;95.90
14798;DHT22;7490;63.708;20.368;2022-10-04T21:03:45;11.10;96.00
14798;DHT22;7490;63.708;20.368;2022-10-04T21:06:11;11.10;96.00
14798;DHT22;7490;63.708;20.368;2022-10-04T21:08:37;11.10;95.90
14798;DHT22;7490;63.708;20.368;2022-10-04T21:11:18;11.20;96.00
14798;DHT22;7490;63.708;20.368;2022-10-04T21:13:55;11.20;96.00
14798;DHT22;7490;63.708;20.368;2022-10-04T21:16:41;11.20;96.10
14798;DHT22;7490;63.708;20.368;2022-10-04T21:19:38;11.20;96.10
14798;DHT22;7490;63.708;20.368;2022-10-04T21:27:38;11.20;96.30
14798;DHT22;7490;63.708;20.368;2022-10-04T21:30:06;11.20;96.50
14798;DHT22;7490;63.708;20.368;2022-10-04T21:32:37;11.30;96.60
14798;DHT22;7490;63.708;20.368;2022-10-04T21:35:06;11.30;96.60
14798;DHT22;7490;63.708;20.368;2022-10-04T21:37:33;11.40;96.70
14798;DHT22;7490;63.708;20.368;2022-10-04T21:39:58;11.40;96.70
14798;DHT22;7490;63.708;20.368;2022-10-04T21:42:24;11.50;96.80
14798;DHT22;7490;63.708;20.368;2022-10-04T21:44:50;11.60;96.80
14798;DHT22;7490;63.708;20.368;2022-10-04T21:47:16;11.70;96.90
14798;DHT22;7490;63.708;20.368;2022-10-04T21:49:42;11.80;96.90
14798;DHT22;7490;63.708;20.368;2022-10-04T21:52:08;11.80;96.90
14798;DHT22;7490;63.708;20.368;2022-10-04T21:54:34;11.90;96.90
14798;DHT22;7490;63.708;20.368;2022-10-04T21:57:00;11.90;96.80
14798;DHT22;7490;63.708;20.368;2022-10-04T21:59:26;12.00;96.80
14798;DHT22;7490;63.708;20.368;2022-10-04T22:01:51;12.00;96.80
14798;DHT22;7490;63.708;20.368;2022-10-04T22:04:17;12.10;96.70
14798;DHT22;7490;63.708;20.368;2022-10-04T22:06:43;12.10;96.60
14798;DHT22;7490;63.708;20.368;2022-10-04T22:09:09;12.10;96.50
14798;DHT22;7490;63.708;20.368;2022-10-04T22:11:35;12.10;96.40
14798;DHT22;7490;63.708;20.368;2022-10-04T22:14:01;12.10;96.20
14798;DHT22;7490;63.708;20.368;2022-10-04T22:16:27;12.10;96.20
14798;DHT22;7490;63.708;20.368;2022-10-04T22:18:53;12.10;96.10
14798;DHT22;7490;63.708;20.368;2022-10-04T22:21:18;12.10;96.10
14798;DHT22;7490;63.708;20.368;2022-10-04T22:23:44;12.10;96.00
14798;DHT22;7490;63.708;20.368;2022-10-04T22:26:15;12.10;96.00
14798;DHT22;7490;63.708;20.368;2022-10-04T22:28:44;12.10;96.00
14798;DHT22;7490;63.708;20.368;2022-10-04T22:31:15;12.10;96.00
14798;DHT22;7490;63.708;20.368;2022-10-04T22:33:43;12.20;95.90
14798;DHT22;7490;63.708;20.368;2022-10-04T22:36:34;12.20;95.90
14798;DHT22;7490;63.708;20.368;2022-10-04T22:46:50;12.30;95.60
14798;DHT22;7490;63.708;20.368;2022-10-04T22:49:19;12.30;95.60
14798;DHT22;7490;63.708;20.368;2022-10-04T22:51:48;12.30;95.60
14798;DHT22;7490;63.708;20.368;2022-10-04T22:54:19;12.30;95.50
14798;DHT22;7490;63.708;20.368;2022-10-04T22:56:46;12.30;95.50
14798;DHT22;7490;63.708;20.368;2022-10-04T22:59:14;12.30;95.40
14798;DHT22;7490;63.708;20.368;2022-10-04T23:01:41;12.30;95.40
14798;DHT22;7490;63.708;20.368;2022-10-04T23:04:20;12.40;95.30
14798;DHT22;7490;63.708;20.368;2022-10-04T23:06:47;12.40;95.30
14798;DHT22;7490;63.708;20.368;2022-10-04T23:09:12;12.40;95.20
14798;DHT22;7490;63.708;20.368;2022-10-04T23:11:38;12.40;95.10
14798;DHT22;7490;63.708;20.368;2022-10-04T23:14:04;12.40;95.10
14798;DHT22;7490;63.708;20.368;2022-10-04T23:16:30;12.50;95.10
14798;DHT22;7490;63.708;20.368;2022-10-04T23:19:22;12.50;95.10
14798;DHT22;7490;63.708;20.368;2022-10-04T23:21:48;12.50;95.00
14798;DHT22;7490;63.708;20.368;2022-10-04T23:24:15;12.50;94.90
14798;DHT22;7490;63.708;20.368;2022-10-04T23:26:43;12.50;94.80
14798;DHT22;7490;63.708;20.368;2022-10-04T23:29:31;12.50;94.70
14798;DHT22;7490;63.708;20.368;2022-10-04T23:31:58;12.50;94.50
14798;DHT22;7490;63.708;20.368;2022-10-04T23:34:34;12.60;94.40
14798;DHT22;7490;63.708;20.368;2022-10-04T23:37:01;12.60;94.20
14798;DHT22;7490;63.708;20.368;2022-10-04T23:39:32;12.60;94.10
14798;DHT22;7490;63.708;20.368;2022-10-04T23:41:59;12.60;94.00
14798;DHT22;7490;63.708;20.368;2022-10-04T23:44:33;12.60;93.90
14798;DHT22;7490;63.708;20.368;2022-10-04T23:46:59;12.60;93.80
14798;DHT22;7490;63.708;20.368;2022-10-04T23:49:26;12.60;93.70
14798;DHT22;7490;63.708;20.368;2022-10-04T23:52:02;12.60;93.60
14798;DHT22;7490;63.708;20.368;2022-10-04T23:54:28;12.60;93.50
14798;DHT22;7490;63.708;20.368;2022-10-04T23:56:54;12.70;93.50
14798;DHT22;7490;63.708;20.368;2022-10-04T23:59:22;12.70;93.50
